Chalk, Texas
Current Conditions -  °F | °C
As of 2:53 PM on Tuesday 27 Jan 2015 (Local Time) from KCDS Reporting Station
Clear Clear  
Wind Chill: 78°   Ceiling: Unl
Heat Index: 78°   Visibility: 10mi
Dew Point: 31°   Wind: 10mph
Humidity: 18%   Direction: 210°SSW
Pressure: 30.12"   Gusts: NA
Location:  33.87°N, 100.22°W
Report Text: KCDS 272053Z AUTO 21009KT 10SM CLR 26/M01 A3012 RMK AO2 SLP186 T02561006 56026
Loading
Personal Weather Stations






























Interactive Weather Map New forecast layout! Learn more

10-Day Weather Forecast

Advertisements
Track Severe Weather on mobile